createdAt,value
2023-04-22T00:01:41.142Z,43.61
2023-04-22T00:04:11.415Z,43.88
2023-04-22T00:06:39.883Z,44.00
2023-04-22T00:09:08.113Z,44.19
2023-04-22T00:11:36.432Z,42.94
2023-04-22T00:14:04.728Z,42.72
2023-04-22T00:16:33.045Z,42.74
2023-04-22T00:19:01.341Z,42.66
2023-04-22T00:21:31.042Z,42.53
2023-04-22T00:23:59.436Z,42.43
2023-04-22T00:29:09.471Z,43.30
2023-04-22T00:31:37.706Z,43.16
2023-04-22T00:34:05.878Z,43.15
2023-04-22T00:36:35.437Z,43.30
2023-04-22T00:39:03.740Z,43.60
2023-04-22T00:41:32.303Z,43.26
2023-04-22T00:44:01.877Z,43.28
2023-04-22T00:46:30.268Z,43.72
2023-04-22T00:48:58.803Z,44.68
2023-04-22T00:53:57.419Z,46.46
2023-04-22T00:56:27.617Z,46.67
2023-04-22T00:58:56.429Z,46.04
2023-04-22T01:01:24.714Z,45.97
2023-04-22T01:03:54.079Z,46.45
2023-04-22T01:06:23.645Z,47.38
2023-04-22T01:08:52.082Z,46.70
2023-04-22T01:11:21.857Z,46.31
2023-04-22T01:13:50.209Z,45.18
2023-04-22T01:16:18.688Z,45.27
2023-04-22T01:18:47.017Z,45.71
2023-04-22T01:21:15.542Z,44.99
2023-04-22T01:23:45.346Z,44.55
2023-04-22T01:26:13.770Z,44.51
2023-04-22T01:28:42.134Z,44.63
2023-04-22T01:31:10.717Z,45.22
2023-04-22T01:33:39.555Z,46.58
2023-04-22T01:36:10.349Z,47.48
2023-04-22T01:38:39.967Z,46.19
2023-04-22T01:41:09.709Z,45.60
2023-04-22T01:43:38.025Z,45.17
2023-04-22T01:46:07.362Z,45.69
2023-04-22T01:48:35.837Z,45.20
2023-04-22T01:51:04.213Z,45.43
2023-04-22T01:56:00.853Z,47.01
2023-04-22T01:58:32.370Z,48.92
2023-04-22T02:01:00.605Z,49.85
2023-04-22T02:03:29.006Z,53.08
2023-04-22T02:05:57.333Z,52.56
2023-04-22T02:08:26.120Z,54.13
2023-04-22T02:10:54.464Z,54.28
2023-04-22T02:13:23.882Z,50.58
2023-04-22T02:15:53.940Z,52.10
2023-04-22T02:18:22.546Z,49.33
2023-04-22T02:20:50.927Z,49.62
2023-04-22T02:23:19.169Z,52.13
2023-04-22T02:25:50.353Z,57.42
2023-04-22T02:28:19.166Z,54.34
2023-04-22T02:30:47.850Z,53.47
2023-04-22T02:33:17.468Z,52.39
2023-04-22T02:35:45.816Z,54.96
2023-04-22T02:38:14.041Z,58.58
2023-04-22T02:40:42.356Z,60.53
2023-04-22T02:43:10.667Z,55.68
2023-04-22T02:45:40.850Z,53.79
2023-04-22T02:48:09.237Z,52.13
2023-04-22T02:50:38.870Z,51.35
2023-04-22T02:53:07.246Z,50.65
2023-04-22T02:55:35.535Z,50.83
2023-04-22T02:58:03.957Z,52.22
2023-04-22T03:00:32.270Z,51.40
2023-04-22T03:03:00.706Z,53.79
2023-04-22T03:05:29.326Z,52.17
2023-04-22T03:07:58.908Z,51.77
2023-04-22T03:10:27.188Z,52.22
2023-04-22T03:12:55.765Z,52.76
2023-04-22T03:15:24.042Z,52.04
2023-04-22T03:17:52.313Z,52.08
2023-04-22T03:20:20.954Z,49.27
2023-04-22T03:22:49.226Z,48.44
2023-04-22T03:25:18.844Z,48.40
2023-04-22T03:27:47.208Z,48.19
2023-04-22T03:30:15.776Z,49.69
2023-04-22T03:32:44.095Z,55.21
2023-04-22T03:35:12.467Z,56.40
2023-04-22T03:37:40.849Z,60.17
2023-04-22T03:40:11.697Z,60.33
2023-04-22T03:42:42.680Z,55.81
2023-04-22T03:45:11.830Z,52.45
2023-04-22T03:47:40.219Z,50.09
2023-04-22T03:50:08.968Z,50.31
2023-04-22T03:52:37.212Z,51.93
2023-04-22T03:55:06.177Z,50.82
2023-04-22T03:57:34.445Z,51.25
2023-04-22T04:00:04.437Z,51.55
2023-04-22T04:02:32.777Z,53.11
2023-04-22T04:05:02.246Z,55.84
2023-04-22T04:07:30.790Z,53.61
2023-04-22T04:09:59.095Z,53.55
2023-04-22T04:12:27.292Z,52.93
2023-04-22T04:14:55.524Z,51.98
2023-04-22T04:17:26.238Z,53.73
2023-04-22T04:19:54.665Z,52.81
2023-04-22T04:22:23.196Z,54.77
2023-04-22T04:24:52.439Z,53.29
2023-04-22T04:27:21.072Z,54.35
2023-04-22T04:29:49.521Z,54.57
2023-04-22T04:32:18.727Z,53.07
2023-04-22T04:34:48.465Z,52.27
2023-04-22T04:37:17.684Z,51.82
2023-04-22T04:39:47.228Z,51.75
2023-04-22T04:42:15.485Z,54.75
2023-04-22T04:44:43.761Z,58.14
2023-04-22T04:47:13.177Z,56.90
2023-04-22T04:49:41.812Z,57.57
2023-04-22T04:52:11.978Z,60.51
2023-04-22T04:54:40.333Z,59.19
2023-04-22T04:57:10.224Z,58.43
2023-04-22T04:59:38.606Z,57.45
2023-04-22T05:02:07.161Z,55.43
2023-04-22T05:04:35.625Z,53.20
2023-04-22T05:07:04.237Z,51.11
2023-04-22T05:09:37.593Z,45.95
2023-04-22T05:12:06.542Z,43.54
2023-04-22T05:14:34.939Z,42.74
2023-04-22T05:17:03.591Z,42.58
2023-04-22T05:19:31.797Z,42.44
2023-04-22T05:22:00.097Z,42.18
2023-04-22T05:24:28.334Z,42.11
2023-04-22T05:26:58.523Z,42.78
2023-04-22T05:29:26.781Z,44.27
2023-04-22T05:31:55.178Z,45.51
2023-04-22T05:34:23.478Z,45.91
2023-04-22T05:36:51.718Z,48.45
2023-04-22T05:39:20.114Z,50.52
2023-04-22T05:41:48.437Z,52.73
2023-04-22T05:44:18.437Z,56.62
2023-04-22T05:46:46.796Z,53.28
2023-04-22T05:49:15.063Z,55.59
2023-04-22T05:51:43.747Z,56.79
2023-04-22T05:54:11.985Z,52.54
2023-04-22T05:56:40.258Z,51.83
2023-04-22T05:59:09.191Z,49.87
2023-04-22T06:01:38.838Z,47.84
2023-04-22T06:04:07.429Z,48.88
2023-04-22T06:06:35.881Z,45.19
2023-04-22T06:09:04.169Z,45.37
2023-04-22T06:11:32.460Z,43.03
2023-04-22T06:14:01.310Z,43.47
2023-04-22T06:16:29.583Z,42.71
2023-04-22T06:18:59.260Z,43.98
2023-04-22T06:21:28.644Z,43.16
2023-04-22T06:23:57.097Z,43.63
2023-04-22T06:26:25.425Z,44.56
2023-04-22T06:28:53.869Z,42.79
2023-04-22T06:31:22.204Z,42.75
2023-04-22T06:33:50.535Z,41.80
2023-04-22T06:36:20.140Z,40.99
2023-04-22T06:38:48.404Z,41.33
2023-04-22T06:41:17.445Z,41.71
2023-04-22T06:43:46.297Z,40.61
2023-04-22T06:46:14.607Z,40.11
2023-04-22T06:48:42.843Z,40.38
2023-04-22T06:51:11.170Z,41.22
2023-04-22T06:53:40.852Z,43.39
2023-04-22T06:56:09.247Z,40.55
2023-04-22T06:58:37.529Z,42.50
2023-04-22T07:01:06.214Z,42.33
2023-04-22T07:03:34.543Z,40.55
2023-04-22T07:06:03.056Z,41.12
2023-04-22T07:08:31.293Z,39.54
2023-04-22T07:11:00.946Z,38.25
2023-04-22T07:13:29.215Z,39.71
2023-04-22T07:15:57.466Z,40.25
2023-04-22T07:18:25.787Z,39.21
2023-04-22T07:20:54.022Z,39.16
2023-04-22T07:23:22.605Z,40.26
2023-04-22T07:25:50.846Z,39.97
2023-04-22T07:28:20.483Z,39.53
2023-04-22T07:30:48.822Z,38.85
2023-04-22T07:33:17.065Z,40.18
2023-04-22T07:35:45.321Z,38.08
2023-04-22T07:38:14.692Z,40.25
2023-04-22T07:40:43.094Z,38.67
2023-04-22T07:43:11.433Z,38.32
2023-04-22T07:45:41.147Z,38.24
2023-04-22T07:48:09.360Z,36.95
2023-04-22T07:50:38.828Z,36.92
2023-04-22T07:53:07.324Z,35.76
2023-04-22T07:55:35.701Z,36.23
2023-04-22T07:58:06.405Z,37.29
2023-04-22T08:00:35.324Z,36.91
2023-04-22T08:03:05.468Z,37.24
2023-04-22T08:05:33.900Z,36.31
2023-04-22T08:08:02.156Z,37.53
2023-04-22T08:10:30.519Z,36.98
2023-04-22T08:12:58.920Z,37.71
2023-04-22T08:15:27.176Z,35.99
2023-04-22T08:17:55.551Z,36.73
2023-04-22T08:20:25.650Z,36.80
2023-04-22T08:22:58.200Z,34.57
2023-04-22T08:25:26.576Z,35.59
2023-04-22T08:27:55.128Z,35.54
2023-04-22T08:30:23.385Z,33.93
2023-04-22T08:32:53.453Z,35.50
2023-04-22T08:35:21.977Z,34.67
2023-04-22T08:37:51.607Z,36.55
2023-04-22T08:40:20.227Z,36.33
2023-04-22T08:42:49.370Z,35.46
2023-04-22T08:45:19.469Z,36.66
2023-04-22T08:47:48.755Z,35.54
2023-04-22T08:50:17.112Z,34.84
2023-04-22T08:52:45.405Z,35.09
2023-04-22T08:55:15.314Z,34.09
2023-04-22T08:57:44.315Z,35.16
2023-04-22T09:00:13.327Z,35.27
2023-04-22T09:02:45.183Z,34.89
2023-04-22T09:05:15.197Z,33.54
2023-04-22T09:07:43.681Z,34.55
2023-04-22T09:10:13.137Z,35.48
2023-04-22T09:12:44.271Z,33.99
2023-04-22T09:15:13.506Z,33.44
2023-04-22T09:17:43.339Z,33.48
2023-04-22T09:20:13.072Z,32.80
2023-04-22T09:22:43.353Z,32.46
2023-04-22T09:25:17.497Z,33.05
2023-04-22T09:27:51.710Z,32.13
2023-04-22T09:30:20.782Z,32.90
2023-04-22T09:32:56.103Z,32.65
2023-04-22T09:35:27.868Z,33.52
2023-04-22T09:37:56.183Z,31.66
2023-04-22T09:40:24.853Z,32.28
2023-04-22T09:42:56.515Z,32.40
2023-04-22T09:45:29.841Z,32.90
2023-04-22T09:47:59.230Z,33.44
2023-04-22T09:50:28.737Z,30.78
2023-04-22T09:52:59.403Z,30.86
2023-04-22T09:55:29.398Z,30.47
2023-04-22T09:57:59.266Z,30.41
2023-04-22T10:00:30.035Z,30.30
2023-04-22T10:02:58.420Z,30.82
2023-04-22T10:05:27.115Z,32.04
2023-04-22T10:07:55.465Z,32.29
2023-04-22T10:10:24.889Z,31.01
2023-04-22T10:12:53.553Z,31.16
2023-04-22T10:15:24.948Z,29.87
2023-04-22T10:17:56.263Z,30.62
2023-04-22T10:20:25.075Z,31.47
2023-04-22T10:22:54.654Z,31.17
2023-04-22T10:25:24.068Z,30.42
2023-04-22T10:27:56.359Z,31.82
2023-04-22T10:30:33.102Z,32.54
2023-04-22T10:33:39.477Z,31.56
2023-04-22T10:36:13.335Z,32.38
2023-04-22T10:39:03.422Z,32.10
2023-04-22T10:41:33.400Z,31.72
2023-04-22T10:44:02.860Z,30.95
2023-04-22T10:47:01.108Z,30.47
2023-04-22T10:49:33.036Z,30.20
2023-04-22T10:52:04.025Z,30.10
2023-04-22T10:55:03.419Z,31.36
2023-04-22T10:57:40.521Z,30.82
2023-04-22T11:00:45.607Z,30.32
2023-04-22T11:03:27.718Z,30.12
2023-04-22T11:06:14.626Z,30.74
2023-04-22T11:08:46.500Z,29.71
2023-04-22T11:11:14.891Z,30.79
2023-04-22T11:13:44.046Z,30.00
2023-04-22T11:16:12.550Z,29.37
2023-04-22T11:18:42.469Z,29.55
2023-04-22T11:21:10.794Z,30.00
2023-04-22T11:23:39.110Z,30.24
2023-04-22T11:26:07.806Z,29.64
2023-04-22T11:28:36.478Z,29.24
2023-04-22T11:31:06.504Z,29.63
2023-04-22T11:33:35.798Z,29.01
2023-04-22T11:36:06.773Z,28.67
2023-04-22T11:38:35.931Z,29.37
2023-04-22T11:41:05.177Z,28.83
2023-04-22T11:43:33.713Z,28.50
2023-04-22T11:46:02.382Z,26.98
2023-04-22T11:48:30.772Z,30.08
2023-04-22T11:51:11.643Z,29.31
2023-04-22T11:53:41.297Z,29.38
2023-04-22T11:56:09.741Z,28.72
2023-04-22T11:58:40.803Z,27.85
2023-04-22T12:01:13.634Z,29.52
2023-04-22T12:03:42.377Z,27.39
2023-04-22T12:06:12.320Z,27.94
2023-04-22T12:08:44.389Z,27.49
2023-04-22T12:11:13.394Z,27.86
2023-04-22T12:13:43.649Z,27.86
2023-04-22T12:16:13.179Z,27.77
2023-04-22T12:18:43.205Z,27.77
2023-04-22T12:21:13.760Z,28.31
2023-04-22T12:23:43.485Z,27.89
2023-04-22T12:26:11.759Z,28.56
2023-04-22T12:28:42.154Z,27.37
2023-04-22T12:31:10.682Z,26.71
2023-04-22T12:33:39.546Z,25.77
2023-04-22T12:36:08.379Z,26.38
2023-04-22T12:38:38.089Z,24.80
2023-04-22T12:41:07.126Z,27.86
2023-04-22T12:43:36.730Z,26.00
2023-04-22T12:46:05.594Z,27.13
2023-04-22T12:48:34.348Z,26.81
2023-04-22T12:51:02.633Z,26.88
2023-04-22T12:53:31.017Z,26.54
2023-04-22T12:56:00.649Z,26.02
2023-04-22T12:58:28.930Z,25.64
2023-04-22T13:00:57.221Z,26.81
2023-04-22T13:03:25.635Z,27.10
2023-04-22T13:05:54.059Z,26.25
2023-04-22T13:08:22.317Z,25.99
2023-04-22T13:10:50.579Z,25.10
2023-04-22T13:13:20.191Z,24.31
2023-04-22T13:15:53.608Z,25.18
2023-04-22T13:18:22.882Z,24.20
2023-04-22T13:20:51.291Z,26.46
2023-04-22T13:23:21.609Z,26.08
2023-04-22T13:25:50.730Z,25.27
2023-04-22T13:28:20.413Z,26.16
2023-04-22T13:30:48.706Z,24.85
2023-04-22T13:33:17.005Z,26.58
2023-04-22T13:35:45.325Z,24.87
2023-04-22T13:38:13.654Z,24.05
2023-04-22T13:40:42.107Z,25.05
2023-04-22T13:43:10.845Z,24.85
2023-04-22T13:45:40.912Z,25.15
2023-04-22T13:48:09.361Z,24.34
2023-04-22T13:50:37.725Z,22.57
2023-04-22T13:53:09.846Z,24.76
2023-04-22T13:55:38.617Z,25.03
2023-04-22T13:58:07.753Z,24.68
2023-04-22T14:00:36.340Z,23.93
2023-04-22T14:03:06.481Z,22.66
2023-04-22T14:05:34.801Z,22.35
2023-04-22T14:08:03.163Z,21.68
2023-04-22T14:10:31.558Z,22.12
2023-04-22T14:12:59.878Z,22.21
2023-04-22T14:15:28.253Z,22.56
2023-04-22T14:17:56.658Z,22.72
2023-04-22T14:20:26.341Z,21.79
2023-04-22T14:22:54.682Z,23.97
2023-04-22T14:25:23.072Z,22.83
2023-04-22T14:27:51.398Z,23.20
2023-04-22T14:30:21.796Z,23.16
2023-04-22T14:32:50.464Z,21.98
2023-04-22T14:35:19.288Z,22.11
2023-04-22T14:37:49.120Z,22.45
2023-04-22T14:40:17.610Z,21.87
2023-04-22T14:42:46.222Z,22.31
2023-04-22T14:45:14.726Z,21.86
2023-04-22T14:47:43.054Z,21.28
2023-04-22T14:50:11.932Z,21.33
2023-04-22T14:52:40.515Z,22.02
2023-04-22T14:55:21.979Z,21.78
2023-04-22T14:57:53.276Z,23.20
2023-04-22T15:00:21.427Z,21.85
2023-04-22T15:02:49.780Z,22.00
2023-04-22T15:05:18.245Z,22.69
2023-04-22T15:07:46.612Z,22.77
2023-04-22T15:10:16.917Z,23.11
2023-04-22T15:12:45.090Z,23.09
2023-04-22T15:15:15.897Z,22.56
2023-04-22T15:17:44.782Z,22.45
2023-04-22T15:20:14.184Z,22.58
2023-04-22T15:22:42.830Z,22.55
2023-04-22T15:25:11.912Z,22.91
2023-04-22T15:27:41.601Z,22.27
2023-04-22T15:30:10.958Z,22.77
2023-04-22T15:32:39.904Z,22.34
2023-04-22T15:35:08.966Z,21.44
2023-04-22T15:37:37.246Z,22.08
2023-04-22T15:40:07.005Z,21.44
2023-04-22T15:42:35.710Z,22.56
2023-04-22T15:45:06.131Z,22.15
2023-04-22T15:47:34.890Z,21.42
2023-04-22T15:50:06.544Z,21.21
2023-04-22T15:52:35.278Z,21.13
2023-04-22T15:55:03.668Z,21.87
2023-04-22T15:57:35.029Z,21.68
2023-04-22T16:00:11.988Z,21.53
2023-04-22T16:02:42.115Z,21.46
2023-04-22T16:05:11.469Z,22.34
2023-04-22T16:07:40.273Z,22.35
2023-04-22T16:10:10.075Z,22.28
2023-04-22T16:12:38.362Z,21.58
2023-04-22T16:15:10.577Z,22.25
2023-04-22T16:17:39.358Z,21.52
2023-04-22T16:20:09.535Z,22.13
2023-04-22T16:22:38.195Z,21.88
2023-04-22T16:25:07.779Z,22.00
2023-04-22T16:27:36.073Z,23.01
2023-04-22T16:30:05.720Z,22.69
2023-04-22T16:32:35.611Z,22.74
2023-04-22T16:35:04.416Z,22.83
2023-04-22T16:37:34.065Z,23.33
2023-04-22T16:40:02.733Z,23.21
2023-04-22T16:42:31.100Z,23.37
2023-04-22T16:44:59.314Z,22.96
2023-04-22T16:47:27.634Z,22.74
2023-04-22T16:49:57.285Z,23.08
2023-04-22T16:52:25.605Z,23.44
2023-04-22T16:54:53.862Z,23.44
2023-04-22T16:57:22.273Z,23.65
2023-04-22T16:59:50.493Z,23.22
2023-04-22T17:02:18.935Z,23.38
2023-04-22T17:04:47.923Z,23.54
2023-04-22T17:07:17.588Z,23.34
2023-04-22T17:09:46.308Z,23.28
2023-04-22T17:12:14.578Z,23.09
2023-04-22T17:14:42.974Z,23.36
2023-04-22T17:17:11.522Z,22.91
2023-04-22T17:19:40.420Z,23.08
2023-04-22T17:22:09.401Z,23.24
2023-04-22T17:24:39.019Z,23.50
2023-04-22T17:27:07.382Z,23.86
2023-04-22T17:29:35.817Z,23.61
2023-04-22T17:32:04.127Z,23.83
2023-04-22T17:34:32.669Z,23.73
2023-04-22T17:37:00.930Z,24.09
2023-04-22T17:39:29.255Z,24.40
2023-04-22T17:41:59.351Z,25.10
2023-04-22T17:44:27.677Z,24.83
2023-04-22T17:46:56.042Z,25.27
2023-04-22T17:49:24.407Z,25.42
2023-04-22T17:51:52.635Z,25.41
2023-04-22T17:54:20.935Z,25.68
2023-04-22T17:56:49.231Z,26.04
2023-04-22T17:59:18.842Z,26.10
2023-04-22T18:01:47.109Z,25.90
2023-04-22T18:04:15.464Z,26.02
2023-04-22T18:06:43.750Z,26.76
2023-04-22T18:09:12.172Z,26.61
2023-04-22T18:11:40.421Z,27.01
2023-04-22T18:14:08.908Z,27.52
2023-04-22T18:16:38.588Z,30.70
2023-04-22T18:19:07.618Z,32.01
2023-04-22T18:21:36.902Z,33.63
2023-04-22T18:24:08.452Z,33.04
2023-04-22T18:26:37.185Z,31.10
2023-04-22T18:29:05.632Z,29.95
2023-04-22T18:31:33.886Z,29.76
2023-04-22T18:34:04.190Z,29.25
2023-04-22T18:36:32.628Z,29.77
2023-04-22T18:39:03.446Z,30.42
2023-04-22T18:41:31.671Z,29.97
2023-04-22T18:43:59.982Z,30.55
2023-04-22T18:46:28.392Z,30.09
2023-04-22T18:48:56.721Z,30.41
2023-04-22T18:51:27.669Z,30.95
2023-04-22T18:53:55.917Z,30.84
2023-04-22T18:56:24.278Z,31.54
2023-04-22T18:58:52.646Z,31.45
2023-04-22T19:01:20.992Z,31.79
2023-04-22T19:03:50.029Z,32.57
2023-04-22T19:06:18.373Z,35.49
2023-04-22T19:08:48.893Z,35.55
2023-04-22T19:11:17.208Z,35.88
2023-04-22T19:13:46.309Z,36.13
2023-04-22T19:16:14.582Z,36.47
2023-04-22T19:18:44.746Z,34.28
2023-04-22T19:21:13.026Z,32.49
2023-04-22T19:23:41.640Z,31.78
2023-04-22T19:26:11.275Z,31.29
2023-04-22T19:28:39.517Z,31.03
2023-04-22T19:31:07.745Z,30.76
2023-04-22T19:33:36.261Z,31.91
2023-04-22T19:36:04.788Z,32.11
2023-04-22T19:38:33.025Z,32.50
2023-04-22T19:41:01.361Z,33.38
2023-04-22T19:43:31.867Z,34.12
2023-04-22T19:46:00.350Z,34.06
2023-04-22T19:48:29.302Z,35.63
2023-04-22T19:50:58.472Z,34.64
2023-04-22T19:53:27.083Z,34.05
2023-04-22T19:55:55.598Z,33.29
2023-04-22T19:58:23.927Z,32.92
2023-04-22T20:00:54.399Z,32.43
2023-04-22T20:03:22.929Z,32.88
2023-04-22T20:05:51.625Z,35.13
2023-04-22T20:08:20.623Z,35.39
2023-04-22T20:10:50.080Z,35.47
2023-04-22T20:13:18.727Z,34.05
2023-04-22T20:15:47.628Z,36.22
2023-04-22T20:18:17.706Z,36.44
2023-04-22T20:20:48.126Z,36.00
2023-04-22T20:23:16.749Z,35.61
2023-04-22T20:25:45.715Z,34.77
2023-04-22T20:28:14.190Z,33.91
2023-04-22T20:30:42.793Z,35.15
2023-04-22T20:33:15.171Z,34.23
2023-04-22T20:35:47.800Z,34.49
2023-04-22T20:38:15.862Z,34.70
2023-04-22T20:40:45.433Z,35.87
2023-04-22T20:43:17.889Z,38.71
2023-04-22T20:45:46.139Z,39.60
2023-04-22T20:48:14.467Z,40.33
2023-04-22T20:50:42.708Z,38.65
2023-04-22T20:53:12.526Z,36.85
2023-04-22T20:55:41.258Z,36.88
2023-04-22T20:58:09.546Z,37.41
2023-04-22T21:00:37.820Z,36.23
2023-04-22T21:03:09.815Z,36.05
2023-04-22T21:05:41.296Z,35.31
2023-04-22T21:08:22.789Z,35.74
2023-04-22T21:10:52.864Z,36.06
2023-04-22T21:13:21.866Z,35.42
2023-04-22T21:15:56.639Z,36.08
2023-04-22T21:18:26.604Z,36.98
2023-04-22T21:20:56.915Z,36.56
2023-04-22T21:23:27.213Z,37.48
2023-04-22T21:25:56.208Z,36.49
2023-04-22T21:28:25.054Z,36.57
2023-04-22T21:30:53.986Z,36.05
2023-04-22T21:33:22.246Z,36.21
2023-04-22T21:35:50.573Z,36.09
2023-04-22T21:38:19.722Z,35.83
2023-04-22T21:40:49.351Z,36.45
2023-04-22T21:43:17.585Z,36.24
2023-04-22T21:45:45.844Z,35.59
2023-04-22T21:48:14.268Z,35.34
2023-04-22T21:50:42.509Z,35.29
2023-04-22T21:53:11.189Z,36.24
2023-04-22T21:55:40.409Z,36.61
2023-04-22T21:58:09.975Z,36.47
2023-04-22T22:00:38.759Z,37.50
2023-04-22T22:03:07.284Z,37.15
2023-04-22T22:05:36.048Z,36.91
2023-04-22T22:08:04.336Z,36.84
2023-04-22T22:10:32.731Z,37.28
2023-04-22T22:13:00.975Z,38.43
2023-04-22T22:15:30.620Z,37.69
2023-04-22T22:17:59.430Z,37.87
2023-04-22T22:20:29.901Z,39.09
2023-04-22T22:22:58.160Z,39.14
2023-04-22T22:25:26.905Z,38.73
2023-04-22T22:27:55.217Z,38.30
2023-04-22T22:30:23.466Z,38.54
2023-04-22T22:32:53.191Z,38.63
2023-04-22T22:35:22.330Z,40.31
2023-04-22T22:37:50.886Z,40.27
2023-04-22T22:40:19.210Z,40.77
2023-04-22T22:42:47.644Z,40.53
2023-04-22T22:45:16.037Z,40.66
2023-04-22T22:47:44.425Z,39.97
2023-04-22T22:50:14.347Z,40.12
2023-04-22T22:52:42.720Z,40.19
2023-04-22T22:55:10.992Z,39.94
2023-04-22T22:57:39.455Z,40.20
2023-04-22T23:00:10.306Z,39.96
2023-04-22T23:02:38.792Z,40.06
2023-04-22T23:05:10.797Z,40.45
2023-04-22T23:07:40.581Z,40.05
2023-04-22T23:10:10.135Z,40.25
2023-04-22T23:12:38.412Z,40.27
2023-04-22T23:15:07.932Z,40.18
2023-04-22T23:17:36.630Z,40.34
2023-04-22T23:20:07.341Z,41.31
2023-04-22T23:22:35.426Z,40.62
2023-04-22T23:25:05.956Z,40.64
2023-04-22T23:27:34.275Z,40.27
2023-04-22T23:30:03.087Z,40.85
2023-04-22T23:32:33.330Z,40.08
2023-04-22T23:35:02.431Z,39.71
2023-04-22T23:37:31.255Z,38.83
2023-04-22T23:39:59.556Z,39.17
2023-04-22T23:42:29.204Z,39.67
2023-04-22T23:44:57.668Z,39.44
2023-04-22T23:47:26.083Z,39.65
2023-04-22T23:49:54.378Z,39.89
2023-04-22T23:52:23.328Z,40.60
2023-04-22T23:54:52.735Z,40.77
2023-04-22T23:57:21.567Z,41.12
2023-04-22T23:59:51.918Z,41.15
